Time;durP1;ratioP1;P1;durP2;ratioP2;P2;SDS_P1;SDS_P2;PMS_P1;PMS_P2;Temp;Humidity;BMP_temperature;BMP_pressure;BME280_temperature;BME280_humidity;BME280_pressure;Samples;Min_cycle;Max_cycle;Signal;HPM_P1;HPM_P2
2023/03/14 00:00:35;;;;;;;2.50;0.50;;;12.50;99.90;;;;;;5056373;28;20255;-69
2023/03/14 00:03:00;;;;;;;1.20;0.60;;;12.60;99.90;;;;;;5073995;28;20304;-69
2023/03/14 00:05:26;;;;;;;0.57;0.37;;;12.50;99.90;;;;;;5073695;28;20119;-69
2023/03/14 00:07:52;;;;;;;1.37;0.70;;;12.60;99.90;;;;;;5073554;28;20020;-70
2023/03/14 00:10:18;;;;;;;0.52;0.40;;;12.60;99.90;;;;;;5087759;28;20652;-69
2023/03/14 00:12:44;;;;;;;1.23;0.40;;;12.60;99.90;;;;;;5093536;28;20028;-69
2023/03/14 00:15:10;;;;;;;2.30;0.60;;;12.70;99.90;;;;;;5093469;28;20043;-69
2023/03/14 00:17:36;;;;;;;2.85;0.60;;;12.70;99.90;;;;;;5092655;28;20511;-69
2023/03/14 00:20:07;;;;;;;1.15;0.73;;;12.70;99.90;;;;;;5075138;28;20024;-69
2023/03/14 00:22:37;;;;;;;0.70;0.50;;;12.70;99.90;;;;;;5094164;28;20024;-69
2023/03/14 00:25:04;;;;;;;0.45;0.40;;;12.60;99.90;;;;;;5075329;28;20487;-68
2023/03/14 00:27:30;;;;;;;0.55;0.38;;;12.70;99.90;;;;;;5093684;28;20423;-69
2023/03/14 00:29:55;;;;;;;0.93;0.40;;;12.60;99.90;;;;;;5075958;28;20093;-68
2023/03/14 00:32:21;;;;;;;1.17;0.50;;;12.60;99.90;;;;;;5093584;28;20375;-69
2023/03/14 00:34:46;;;;;;;0.80;0.50;;;12.60;99.90;;;;;;5093231;28;20028;-69
2023/03/14 00:37:12;;;;;;;0.70;0.40;;;12.70;99.90;;;;;;5094237;28;20024;-69
2023/03/14 00:39:37;;;;;;;1.63;0.50;;;12.70;99.90;;;;;;5093296;28;20077;-69
2023/03/14 00:42:03;;;;;;;1.77;0.50;;;12.70;99.90;;;;;;5075149;28;20016;-69
2023/03/14 00:44:28;;;;;;;1.08;0.50;;;12.70;99.90;;;;;;5093406;28;20357;-69
2023/03/14 00:46:54;;;;;;;3.70;1.37;;;12.60;99.90;;;;;;5094621;28;20346;-69
2023/03/14 00:49:19;;;;;;;0.80;0.67;;;12.70;99.90;;;;;;5095644;28;20028;-69
2023/03/14 00:51:45;;;;;;;0.90;0.40;;;12.70;99.90;;;;;;5098558;28;20158;-69
2023/03/14 00:54:10;;;;;;;4.37;0.90;;;12.70;99.90;;;;;;5097527;28;20016;-69
2023/03/14 00:56:36;;;;;;;1.70;0.33;;;12.70;99.90;;;;;;5097146;28;20479;-70
2023/03/14 00:59:02;;;;;;;0.50;0.30;;;12.70;99.90;;;;;;5096949;28;20055;-70
2023/03/14 01:01:27;;;;;;;0.57;0.50;;;12.70;99.90;;;;;;5097109;28;20130;-68
2023/03/14 01:03:54;;;;;;;1.10;0.50;;;12.70;99.90;;;;;;5097251;28;20107;-69
2023/03/14 01:06:23;;;;;;;1.23;0.50;;;12.60;99.90;;;;;;5079350;28;20469;-70
2023/03/14 01:08:49;;;;;;;0.73;0.40;;;12.60;99.90;;;;;;5079137;28;20024;-69
2023/03/14 01:11:18;;;;;;;2.45;0.45;;;12.60;99.90;;;;;;5078384;28;20020;-68
2023/03/14 01:13:43;;;;;;;1.67;0.40;;;12.60;99.90;;;;;;5097059;28;20419;-68
2023/03/14 01:16:10;;;;;;;1.63;0.40;;;12.50;99.90;;;;;;5078172;28;20042;-69
2023/03/14 01:18:38;;;;;;;1.25;0.40;;;12.60;99.90;;;;;;5076390;28;20115;-70
2023/03/14 01:21:09;;;;;;;0.50;0.40;;;12.60;99.90;;;;;;5058396;28;20070;-70
2023/03/14 01:23:35;;;;;;;3.22;0.65;;;12.60;99.90;;;;;;5058369;28;20025;-69
2023/03/14 01:26:00;;;;;;;3.70;0.60;;;12.50;99.90;;;;;;5058569;28;20032;-69
2023/03/14 01:28:26;;;;;;;2.70;0.50;;;12.50;99.90;;;;;;5058500;28;20028;-69
2023/03/14 01:30:51;;;;;;;2.30;0.50;;;12.40;99.90;;;;;;5076495;28;20361;-69
2023/03/14 01:33:17;;;;;;;2.43;0.50;;;12.40;99.90;;;;;;5058457;28;20017;-69
2023/03/14 01:35:43;;;;;;;1.80;0.60;;;12.40;99.90;;;;;;5075987;28;20274;-69
2023/03/14 01:38:08;;;;;;;1.33;0.60;;;12.40;99.90;;;;;;5058582;28;20040;-69
2023/03/14 01:40:41;;;;;;;0.93;0.60;;;12.40;99.90;;;;;;5075983;28;20385;-69
2023/03/14 01:43:15;;;;;;;1.63;0.57;;;12.30;99.90;;;;;;5076410;28;20048;-69
2023/03/14 01:46:17;;;;;;;1.88;0.43;;;12.30;99.90;;;;;;5076134;28;20031;-69
2023/03/14 01:48:49;;;;;;;2.28;0.70;;;12.30;99.90;;;;;;5038109;28;20033;-69
2023/03/14 01:51:22;;;;;;;1.17;0.63;;;12.20;99.90;;;;;;5059274;28;20094;-68
2023/03/14 01:53:50;;;;;;;0.77;0.70;;;12.20;99.90;;;;;;5075786;28;20020;-70
2023/03/14 01:56:18;;;;;;;3.08;0.60;;;12.10;99.90;;;;;;5075737;28;20454;-69
2023/03/14 01:58:48;;;;;;;1.77;0.40;;;12.20;99.90;;;;;;5057884;28;20120;-69
2023/03/14 02:01:16;;;;;;;2.08;0.70;;;12.10;99.90;;;;;;5076218;28;20021;-70
2023/03/14 02:03:53;;;;;;;2.05;0.60;;;12.00;99.90;;;;;;5058289;28;20323;-69
2023/03/14 02:06:24;;;;;;;1.50;0.70;;;12.00;99.90;;;;;;5075691;28;20031;-69
2023/03/14 02:08:50;;;;;;;3.47;0.60;;;11.90;99.90;;;;;;5057423;28;20572;-70
2023/03/14 02:11:18;;;;;;;1.45;0.40;;;11.90;99.90;;;;;;5075514;28;20024;-69
2023/03/14 02:13:44;;;;;;;1.13;0.70;;;11.90;99.90;;;;;;5075295;28;20033;-70
2023/03/14 02:16:09;;;;;;;2.88;0.70;;;12.00;99.90;;;;;;5057257;28;20040;-69
2023/03/14 02:18:35;;;;;;;0.70;0.50;;;12.00;99.90;;;;;;5075359;28;20105;-70
2023/03/14 02:21:22;;;;;;;1.88;0.50;;;12.00;99.90;;;;;;5057404;28;20335;-70
2023/03/14 02:23:53;;;;;;;1.85;0.73;;;12.00;99.90;;;;;;5075739;28;20032;-69
2023/03/14 02:26:36;;;;;;;2.53;0.70;;;11.90;99.90;;;;;;5074950;28;20029;-69
2023/03/14 02:29:02;;;;;;;1.80;0.60;;;11.80;99.90;;;;;;5057018;28;20476;-70
2023/03/14 02:31:27;;;;;;;1.35;0.60;;;11.80;99.90;;;;;;5057369;28;20044;-70
2023/03/14 02:33:53;;;;;;;1.10;0.50;;;11.90;99.90;;;;;;5057270;28;20024;-69
2023/03/14 02:36:20;;;;;;;3.38;1.05;;;11.90;99.90;;;;;;5075074;28;20025;-69
2023/03/14 02:39:21;;;;;;;2.05;0.60;;;11.80;99.90;;;;;;5075775;28;20016;-69
2023/03/14 02:41:48;;;;;;;1.88;0.70;;;11.90;99.90;;;;;;4960638;28;20449;-70
2023/03/14 02:44:14;;;;;;;0.88;0.45;;;11.90;99.90;;;;;;4960444;28;20031;-69
2023/03/14 02:46:40;;;;;;;1.53;0.67;;;11.90;99.90;;;;;;4976066;28;20031;-69
2023/03/14 02:49:10;;;;;;;3.10;1.07;;;11.90;99.90;;;;;;4993356;28;20081;-69
2023/03/14 02:51:36;;;;;;;2.25;0.70;;;11.90;99.90;;;;;;4977159;28;20038;-69
2023/03/14 02:54:02;;;;;;;;;;;11.80;99.90;;;;;;4993983;28;20030;-68
2023/03/14 02:56:27;;;;;;;4.30;1.00;;;11.80;99.90;;;;;;4976835;28;19913;-68
2023/03/14 02:58:53;;;;;;;2.40;0.70;;;11.80;99.90;;;;;;4993452;28;20074;-69
2023/03/14 03:01:19;;;;;;;2.47;0.70;;;11.80;99.90;;;;;;4977399;28;20026;-69
2023/03/14 03:03:44;;;;;;;3.08;0.60;;;11.70;99.90;;;;;;4976884;28;20483;-71
2023/03/14 03:06:10;;;;;;;3.43;0.53;;;11.70;99.90;;;;;;4993264;28;20038;-69
2023/03/14 03:08:36;;;;;;;2.67;0.77;;;11.70;99.90;;;;;;4993095;28;20113;-69
2023/03/14 03:11:02;;;;;;;3.20;0.70;;;11.70;99.90;;;;;;4993252;28;20070;-69
2023/03/14 03:13:27;;;;;;;2.72;0.47;;;11.70;99.90;;;;;;4976242;28;20061;-70
2023/03/14 03:15:53;;;;;;;2.75;0.63;;;11.70;99.90;;;;;;4976755;28;20125;-69
2023/03/14 03:18:19;;;;;;;2.17;0.60;;;11.70;99.90;;;;;;5084876;28;20036;-69
2023/03/14 03:20:45;;;;;;;2.28;0.50;;;11.70;99.90;;;;;;5076321;28;20266;-69
2023/03/14 03:23:11;;;;;;;2.22;0.70;;;11.70;99.90;;;;;;5094482;28;20028;-68
2023/03/14 03:25:37;;;;;;;4.38;0.82;;;11.60;99.90;;;;;;5094372;28;20030;-69
2023/03/14 03:28:07;;;;;;;2.07;0.70;;;11.70;99.90;;;;;;5094288;28;20040;-69
2023/03/14 03:30:33;;;;;;;2.70;0.60;;;11.70;99.90;;;;;;5076903;28;20032;-69
2023/03/14 03:32:59;;;;;;;;;;;11.60;99.90;;;;;;5095228;28;20064;-70
2023/03/14 03:35:24;;;;;;;4.35;0.80;;;11.70;99.90;;;;;;5095449;28;19912;-70
2023/03/14 03:37:50;;;;;;;2.20;0.50;;;11.70;99.90;;;;;;5095216;28;20024;-70
2023/03/14 03:40:16;;;;;;;0.70;0.40;;;11.70;99.90;;;;;;5076168;28;20024;-70
2023/03/14 03:42:41;;;;;;;1.90;0.60;;;11.70;99.90;;;;;;5076566;28;20028;-70
2023/03/14 03:45:07;;;;;;;2.40;0.73;;;11.70;99.90;;;;;;5076311;28;20028;-70
2023/03/14 03:47:33;;;;;;;3.58;0.60;;;11.70;99.90;;;;;;5085410;28;20036;-70
2023/03/14 03:49:58;;;;;;;3.30;0.63;;;11.70;99.90;;;;;;5073907;28;20036;-71
2023/03/14 03:52:24;;;;;;;3.67;0.57;;;11.60;99.90;;;;;;5074447;28;20132;-70
2023/03/14 03:54:49;;;;;;;3.50;0.70;;;11.60;99.90;;;;;;5073920;28;20037;-71
2023/03/14 03:57:15;;;;;;;2.37;0.63;;;11.70;99.90;;;;;;5080680;28;20036;-71
2023/03/14 03:59:40;;;;;;;2.50;0.77;;;11.70;99.90;;;;;;5074674;28;20025;-70
2023/03/14 04:02:06;;;;;;;3.13;0.50;;;11.70;99.90;;;;;;5056519;28;20017;-71
2023/03/14 04:04:32;;;;;;;2.55;0.60;;;11.70;99.90;;;;;;5074190;28;20020;-70
2023/03/14 04:06:57;;;;;;;3.27;0.60;;;11.70;99.90;;;;;;5074087;28;20038;-70
2023/03/14 04:09:23;;;;;;;1.93;0.70;;;11.70;99.90;;;;;;5074376;28;20071;-70
2023/03/14 04:11:49;;;;;;;4.63;1.08;;;11.80;99.90;;;;;;5056523;28;20023;-71
2023/03/14 04:14:14;;;;;;;4.83;0.80;;;11.70;99.90;;;;;;5056418;28;20035;-70
2023/03/14 04:16:40;;;;;;;6.72;0.77;;;11.70;99.90;;;;;;5057718;28;20020;-71
2023/03/14 04:19:06;;;;;;;2.38;1.05;;;11.60;99.90;;;;;;5076190;28;20020;-70
2023/03/14 04:21:31;;;;;;;3.33;0.70;;;11.70;99.90;;;;;;5094813;28;20021;-70
2023/03/14 04:23:57;;;;;;;3.77;0.77;;;11.60;99.90;;;;;;5075693;28;20038;-71
2023/03/14 04:26:22;;;;;;;5.07;0.93;;;11.60;99.90;;;;;;5093056;28;20024;-71
2023/03/14 04:28:48;;;;;;;3.00;0.50;;;11.60;99.90;;;;;;5076063;28;20035;-71
2023/03/14 04:31:19;;;;;;;1.33;0.40;;;11.60;99.90;;;;;;5078312;28;20027;-70
2023/03/14 04:33:46;;;;;;;1.88;0.60;;;11.60;99.90;;;;;;5076669;28;20020;-71
2023/03/14 04:36:11;;;;;;;2.85;0.65;;;11.50;99.90;;;;;;5080629;28;20034;-70
2023/03/14 04:38:37;;;;;;;2.75;0.60;;;11.50;99.90;;;;;;5103044;28;20110;-70
2023/03/14 04:41:03;;;;;;;3.73;1.07;;;11.50;99.90;;;;;;5083957;28;20016;-70
2023/03/14 04:43:29;;;;;;;5.32;0.95;;;11.40;99.90;;;;;;5102821;28;20032;-71
2023/03/14 04:45:56;;;;;;;3.88;0.63;;;11.40;99.90;;;;;;5102711;28;20058;-71
2023/03/14 04:48:22;;;;;;;4.07;0.60;;;11.40;99.90;;;;;;5077495;28;20028;-71
2023/03/14 04:50:48;;;;;;;6.03;0.93;;;11.40;99.90;;;;;;5078100;28;20362;-71
2023/03/14 04:53:15;;;;;;;3.90;0.82;;;11.40;99.90;;;;;;5077431;28;20088;-70
2023/03/14 04:55:40;;;;;;;3.08;0.63;;;11.40;99.90;;;;;;5079059;28;20032;-71
2023/03/14 04:58:06;;;;;;;2.05;0.60;;;11.40;99.90;;;;;;5079443;28;20106;-71
2023/03/14 05:00:31;;;;;;;4.97;0.73;;;11.50;99.90;;;;;;5096295;28;20036;-71
2023/03/14 05:02:57;;;;;;;3.90;0.67;;;11.50;99.90;;;;;;5094377;28;20345;-70
2023/03/14 05:05:23;;;;;;;4.30;1.30;;;11.60;99.90;;;;;;5094166;28;20109;-71
2023/03/14 05:07:48;;;;;;;2.97;0.73;;;11.60;99.90;;;;;;5077086;28;20481;-71
2023/03/14 05:10:14;;;;;;;3.73;0.70;;;11.60;99.90;;;;;;5095523;28;20032;-71
2023/03/14 05:12:39;;;;;;;3.77;0.73;;;11.60;99.90;;;;;;5076392;28;20043;-71
2023/03/14 05:15:06;;;;;;;3.03;0.73;;;11.60;99.90;;;;;;5076364;28;20039;-71
2023/03/14 05:17:35;;;;;;;3.58;0.55;;;11.70;99.90;;;;;;5067614;28;20024;-71
2023/03/14 05:20:00;;;;;;;3.38;0.60;;;11.70;99.90;;;;;;5074280;28;20025;-71
2023/03/14 05:22:26;;;;;;;2.40;0.73;;;11.70;99.90;;;;;;5057179;28;20131;-71
2023/03/14 05:24:53;;;;;;;2.53;0.60;;;11.70;99.90;;;;;;5058487;28;20267;-70
2023/03/14 05:27:19;;;;;;;4.95;1.08;;;11.70;99.90;;;;;;5055362;28;20092;-72
2023/03/14 05:29:44;;;;;;;2.50;0.70;;;11.70;99.90;;;;;;5073888;28;20500;-72
2023/03/14 05:32:10;;;;;;;3.87;0.70;;;11.80;99.90;;;;;;5055602;28;20448;-71
2023/03/14 05:34:35;;;;;;;3.07;0.60;;;11.70;99.90;;;;;;5054719;28;20508;-72
2023/03/14 05:37:01;;;;;;;2.37;0.53;;;11.70;99.90;;;;;;5056446;28;20025;-71
2023/03/14 05:39:26;;;;;;;1.93;0.40;;;11.70;99.90;;;;;;5077456;28;20110;-72
2023/03/14 05:41:55;;;;;;;4.30;0.50;;;11.70;99.90;;;;;;5077893;28;20519;-73
2023/03/14 05:44:21;;;;;;;2.45;0.50;;;11.70;99.90;;;;;;5059301;28;20501;-72
2023/03/14 05:46:46;;;;;;;4.27;0.87;;;11.70;99.90;;;;;;5061924;28;20035;-67
2023/03/14 05:49:12;;;;;;;2.30;0.60;;;11.60;99.90;;;;;;5096313;28;20028;-67
2023/03/14 05:51:37;;;;;;;2.47;0.57;;;11.50;99.90;;;;;;5096151;28;20277;-66
2023/03/14 05:54:03;;;;;;;3.53;0.80;;;11.40;99.90;;;;;;5092973;28;20036;-71
2023/03/14 05:56:29;;;;;;;2.87;0.70;;;11.40;99.90;;;;;;5063282;28;20116;-72
2023/03/14 05:58:54;;;;;;;3.37;0.67;;;11.40;99.90;;;;;;5057826;28;20040;-69
2023/03/14 06:01:20;;;;;;;1.77;0.30;;;11.40;99.90;;;;;;5055036;28;20025;-71
2023/03/14 06:03:45;;;;;;;2.13;0.53;;;11.30;99.90;;;;;;5057244;28;20025;-69
2023/03/14 06:06:11;;;;;;;4.63;1.13;;;11.30;99.90;;;;;;5061487;28;20025;-70
2023/03/14 06:08:36;;;;;;;2.27;0.50;;;11.30;99.90;;;;;;5059687;28;20171;-68
2023/03/14 06:11:03;;;;;;;0.80;0.50;;;11.20;99.90;;;;;;5046359;28;20025;-75
2023/03/14 06:13:29;;;;;;;3.42;0.70;;;11.10;99.90;;;;;;5048428;28;20025;-71
2023/03/14 06:15:55;;;;;;;1.25;0.32;;;11.20;99.90;;;;;;5060364;28;20036;-70
2023/03/14 06:18:20;;;;;;;7.00;0.87;;;11.10;99.90;;;;;;5078862;28;20590;-71
2023/03/14 06:20:46;;;;;;;2.27;0.87;;;11.10;99.90;;;;;;5080297;28;20020;-70
2023/03/14 06:23:11;;;;;;;1.63;0.50;;;11.10;99.90;;;;;;5077566;28;20499;-69
2023/03/14 06:25:37;;;;;;;2.73;0.80;;;11.10;99.90;;;;;;5058558;28;20438;-69
2023/03/14 06:28:03;;;;;;;6.82;1.27;;;11.10;99.90;;;;;;5058405;28;20128;-71
2023/03/14 06:30:34;;;;;;;2.22;0.55;;;11.00;99.90;;;;;;5080575;28;20048;-71
2023/03/14 06:33:05;;;;;;;1.65;0.50;;;11.00;99.90;;;;;;5081190;28;20028;-72
2023/03/14 06:35:31;;;;;;;3.15;0.60;;;11.10;99.90;;;;;;5061256;28;20055;-70
2023/03/14 06:37:56;;;;;;;2.07;0.67;;;11.20;99.90;;;;;;5078925;28;20020;-69
2023/03/14 06:40:32;;;;;;;2.93;0.60;;;11.20;99.90;;;;;;5083302;28;20028;-69
2023/03/14 06:42:58;;;;;;;2.50;0.93;;;11.30;99.90;;;;;;5060178;28;20020;-67
2023/03/14 06:45:23;;;;;;;2.87;0.60;;;11.40;99.90;;;;;;5076721;28;20032;-66
2023/03/14 06:47:48;;;;;;;3.67;0.70;;;11.40;99.90;;;;;;5088618;28;20038;-67
2023/03/14 06:50:14;;;;;;;3.73;0.80;;;11.50;99.90;;;;;;5096275;28;20031;-67
2023/03/14 06:52:45;;;;;;;2.47;0.77;;;11.60;99.90;;;;;;5095855;28;20024;-67
2023/03/14 06:55:11;;;;;;;3.25;0.60;;;11.60;99.90;;;;;;5096240;28;20016;-67
2023/03/14 06:57:37;;;;;;;4.03;0.98;;;11.60;99.90;;;;;;5095389;28;20027;-67
2023/03/14 07:00:04;;;;;;;4.77;0.93;;;11.70;99.90;;;;;;5095110;28;20111;-68
2023/03/14 07:02:30;;;;;;;3.97;0.50;;;11.70;99.90;;;;;;5077051;28;20032;-66
2023/03/14 07:04:55;;;;;;;1.90;0.40;;;11.70;99.90;;;;;;5095052;28;20024;-67
2023/03/14 07:07:21;;;;;;;3.90;0.77;;;11.80;99.90;;;;;;5094993;28;20051;-66
2023/03/14 07:09:47;;;;;;;1.77;0.93;;;11.80;99.90;;;;;;5076839;28;20435;-66
2023/03/14 07:12:12;;;;;;;1.37;0.40;;;11.90;99.90;;;;;;5072694;28;20048;-68
2023/03/14 07:14:38;;;;;;;2.03;0.63;;;11.90;99.90;;;;;;5061078;28;20271;-67
2023/03/14 07:17:03;;;;;;;2.17;0.43;;;12.00;99.90;;;;;;5074295;28;20012;-67
2023/03/14 07:19:29;;;;;;;0.80;0.30;;;12.00;99.90;;;;;;5039990;28;20051;-67
2023/03/14 07:21:54;;;;;;;2.03;0.93;;;12.10;99.90;;;;;;5060822;28;20035;-70
2023/03/14 07:24:20;;;;;;;3.43;1.20;;;12.20;99.90;;;;;;5061906;28;20088;-71
2023/03/14 07:26:46;;;;;;;2.37;0.40;;;12.20;99.90;;;;;;5042007;28;20025;-70
2023/03/14 07:29:11;;;;;;;3.40;0.60;;;12.30;99.90;;;;;;5058180;28;20443;-71
2023/03/14 07:31:37;;;;;;;2.57;0.67;;;12.30;99.90;;;;;;5040608;28;20024;-71
2023/03/14 07:34:02;;;;;;;2.33;0.63;;;12.30;99.90;;;;;;5060049;28;20052;-72
2023/03/14 07:36:28;;;;;;;2.40;0.50;;;12.40;99.90;;;;;;5069970;28;20501;-72
2023/03/14 07:38:53;;;;;;;2.63;1.10;;;12.50;99.90;;;;;;5076088;28;20046;-72
2023/03/14 07:41:20;;;;;;;3.70;0.93;;;12.60;99.90;;;;;;5056200;28;20028;-72
2023/03/14 07:43:46;;;;;;;2.08;0.50;;;12.70;99.90;;;;;;5074665;28;20044;-71
2023/03/14 07:46:11;;;;;;;5.30;0.65;;;12.80;99.90;;;;;;5051419;28;20056;-71
2023/03/14 07:48:37;;;;;;;2.97;0.70;;;12.90;99.90;;;;;;5076150;28;20054;-72
2023/03/14 07:51:03;;;;;;;1.23;0.87;;;13.10;99.90;;;;;;5073686;28;20407;-71
2023/03/14 07:53:28;;;;;;;3.67;0.60;;;13.10;99.90;;;;;;5073105;28;20028;-72
2023/03/14 07:55:54;;;;;;;1.60;0.70;;;13.20;99.90;;;;;;5073187;28;20033;-69
2023/03/14 07:58:24;;;;;;;1.75;0.30;;;13.20;99.90;;;;;;5073338;28;20020;-72
2023/03/14 08:00:51;;;;;;;3.58;1.20;;;13.30;99.90;;;;;;5073208;28;20071;-71
2023/03/14 08:03:17;;;;;;;4.05;0.80;;;13.20;99.90;;;;;;5073581;28;20077;-70
2023/03/14 08:05:43;;;;;;;2.15;0.43;;;13.20;99.90;;;;;;5073727;28;20068;-71
2023/03/14 08:08:09;;;;;;;1.02;0.40;;;13.10;99.90;;;;;;5073418;28;20178;-71
2023/03/14 08:10:35;;;;;;;2.03;0.70;;;13.00;99.90;;;;;;5074488;28;20493;-73
2023/03/14 08:13:01;;;;;;;1.45;0.70;;;13.00;99.90;;;;;;5072616;28;20025;-72
2023/03/14 08:15:28;;;;;;;2.28;0.47;;;13.10;99.90;;;;;;5054920;28;20126;-72
2023/03/14 08:17:54;;;;;;;3.97;0.73;;;13.10;99.90;;;;;;5086678;28;20105;-71
2023/03/14 08:20:21;;;;;;;1.10;0.40;;;12.90;99.90;;;;;;5093472;28;20116;-71
2023/03/14 08:22:47;;;;;;;3.95;0.60;;;12.90;99.90;;;;;;5093100;28;20425;-71
2023/03/14 08:25:13;;;;;;;2.33;0.50;;;12.70;99.90;;;;;;5074861;28;20028;-71
2023/03/14 08:27:39;;;;;;;3.07;0.60;;;12.60;99.90;;;;;;5092777;28;20106;-71
2023/03/14 08:30:06;;;;;;;5.40;0.60;;;12.40;99.90;;;;;;5093141;28;20032;-71
2023/03/14 08:32:32;;;;;;;2.10;0.40;;;12.20;99.90;;;;;;5094129;28;20039;-71
2023/03/14 08:34:57;;;;;;;2.80;0.90;;;12.10;99.90;;;;;;5075417;28;20114;-72
2023/03/14 08:37:24;;;;;;;4.80;0.67;;;12.10;99.90;;;;;;5075109;28;20028;-72
2023/03/14 08:39:51;;;;;;;2.58;0.73;;;12.20;99.90;;;;;;5093586;28;20020;-72
2023/03/14 08:42:17;;;;;;;1.05;0.40;;;12.30;99.90;;;;;;5093476;28;20330;-72
2023/03/14 08:44:42;;;;;;;1.85;0.50;;;12.50;99.90;;;;;;5093697;28;20024;-71
2023/03/14 08:47:08;;;;;;;0.70;0.30;;;12.70;99.90;;;;;;5075474;28;20027;-72
2023/03/14 08:49:33;;;;;;;1.40;0.33;;;12.70;99.90;;;;;;5075455;28;20489;-73
2023/03/14 08:52:01;;;;;;;1.97;0.40;;;12.90;99.90;;;;;;5093139;28;20030;-72
2023/03/14 08:54:26;;;;;;;1.45;0.57;;;12.90;99.90;;;;;;5074748;28;20024;-73
2023/03/14 08:56:52;;;;;;;1.30;0.40;;;13.10;99.90;;;;;;5074461;28;20361;-72
2023/03/14 08:59:17;;;;;;;1.47;0.77;;;13.40;99.90;;;;;;5092782;28;20456;-72
2023/03/14 09:01:43;;;;;;;2.38;0.52;;;13.40;99.90;;;;;;5092946;28;20023;-71
2023/03/14 09:04:09;;;;;;;1.87;0.60;;;13.20;99.90;;;;;;5093105;28;20035;-72
2023/03/14 09:06:35;;;;;;;2.33;0.50;;;13.20;99.90;;;;;;5074573;28;20024;-72
2023/03/14 09:09:01;;;;;;;2.38;0.75;;;13.10;99.90;;;;;;5092665;28;20028;-71
2023/03/14 09:11:26;;;;;;;0.73;0.40;;;13.10;99.90;;;;;;5093171;28;20024;-71
2023/03/14 09:13:52;;;;;;;1.38;0.40;;;13.10;99.90;;;;;;5096909;28;20056;-71
2023/03/14 09:16:18;;;;;;;1.27;0.40;;;13.20;99.90;;;;;;5096724;28;20050;-71
2023/03/14 09:18:43;;;;;;;0.90;0.40;;;13.40;99.90;;;;;;5057492;28;20028;-71
2023/03/14 09:21:09;;;;;;;2.47;0.43;;;13.60;99.90;;;;;;5058566;28;20024;-72
2023/03/14 09:23:34;;;;;;;1.55;0.57;;;13.90;99.90;;;;;;5058538;28;20029;-72
2023/03/14 09:26:00;;;;;;;1.73;0.40;;;14.00;99.90;;;;;;5058652;28;20032;-72
2023/03/14 09:28:26;;;;;;;2.35;0.40;;;14.40;99.90;;;;;;5075270;28;20032;-72
2023/03/14 09:30:52;;;;;;;3.05;0.65;;;14.80;99.90;;;;;;5097629;28;20086;-72
2023/03/14 09:33:18;;;;;;;1.10;0.30;;;14.80;99.90;;;;;;5078493;28;20412;-72
2023/03/14 09:35:44;;;;;;;2.30;0.40;;;14.50;99.90;;;;;;5079349;28;20039;-70
2023/03/14 09:38:09;;;;;;;2.27;0.30;;;14.50;99.90;;;;;;5097797;28;20032;-70
2023/03/14 09:40:36;;;;;;;1.17;0.30;;;14.20;99.90;;;;;;5078721;28;20269;-70
2023/03/14 09:43:02;;;;;;;2.40;1.13;;;14.00;99.90;;;;;;5078352;28;20266;-70
2023/03/14 09:45:33;;;;;;;1.48;0.68;;;13.90;99.90;;;;;;5092603;28;20040;-70
2023/03/14 09:48:02;;;;;;;0.50;0.30;;;13.60;99.90;;;;;;5057871;28;20059;-70
2023/03/14 09:50:38;;;;;;;0.82;0.30;;;13.60;99.90;;;;;;5057826;28;20115;-71
2023/03/14 09:53:11;;;;;;;1.30;0.47;;;13.60;99.90;;;;;;5057600;28;20033;-70
2023/03/14 09:55:36;;;;;;;0.50;0.30;;;13.70;99.90;;;;;;5075818;28;20468;-70
2023/03/14 09:58:09;;;;;;;2.20;0.30;;;13.70;99.90;;;;;;5057873;28;20082;-71
2023/03/14 10:00:35;;;;;;;1.02;0.47;;;13.80;99.90;;;;;;5057980;28;20047;-71
2023/03/14 10:03:13;;;;;;;2.72;0.30;;;13.70;99.90;;;;;;5057547;28;20025;-70
2023/03/14 10:05:40;;;;;;;0.75;0.30;;;13.60;99.90;;;;;;5057412;28;20489;-71
2023/03/14 10:08:05;;;;;;;0.93;0.50;;;13.40;99.90;;;;;;5075169;28;20029;-71
2023/03/14 10:10:32;;;;;;;1.03;0.67;;;13.30;99.90;;;;;;5058039;28;20029;-70
2023/03/14 10:13:18;;;;;;;;;;;13.10;99.90;;;;;;5059372;28;20020;-70
2023/03/14 10:15:52;;;;;;;2.55;0.50;;;13.00;99.90;;;;;;5077336;28;19956;-70
2023/03/14 10:18:18;;;;;;;2.40;1.20;;;13.00;99.90;;;;;;5057592;28;20485;-69
2023/03/14 10:20:47;;;;;;;3.25;1.35;;;13.10;99.90;;;;;;5075588;28;20027;-70
2023/03/14 10:23:15;;;;;;;2.38;0.90;;;13.00;99.90;;;;;;5040601;28;20028;-71
2023/03/14 10:25:42;;;;;;;1.75;0.70;;;12.90;99.90;;;;;;5038320;28;20024;-70
2023/03/14 10:28:22;;;;;;;1.42;0.80;;;12.80;99.90;;;;;;5075011;28;20389;-71
2023/03/14 10:30:48;;;;;;;0.93;0.40;;;12.70;99.90;;;;;;5057116;28;20075;-70
2023/03/14 10:33:22;;;;;;;1.23;0.50;;;12.80;99.90;;;;;;5057035;28;20462;-70
2023/03/14 10:35:56;;;;;;;1.67;0.60;;;12.70;99.90;;;;;;5075161;28;20028;-70
2023/03/14 10:38:25;;;;;;;1.27;0.38;;;12.70;99.90;;;;;;5056062;28;20066;-70
2023/03/14 10:40:53;;;;;;;2.53;0.40;;;12.50;99.90;;;;;;5074827;28;20024;-70
2023/03/14 10:43:26;;;;;;;1.30;0.38;;;12.40;99.90;;;;;;5057146;28;20036;-70
2023/03/14 10:46:02;;;;;;;0.52;0.20;;;12.30;99.90;;;;;;5074698;28;20548;-70
2023/03/14 10:48:34;;;;;;;1.75;0.38;;;12.10;99.90;;;;;;5045591;28;20106;-70
2023/03/14 10:51:04;;;;;;;1.70;0.30;;;12.10;99.90;;;;;;5054799;28;20517;-70
2023/03/14 10:53:39;;;;;;;1.55;0.40;;;12.00;99.90;;;;;;5036776;28;20036;-70
2023/03/14 10:56:05;;;;;;;0.90;0.38;;;11.70;99.90;;;;;;5036307;28;20025;-69
2023/03/14 10:58:38;;;;;;;2.40;0.75;;;11.60;99.90;;;;;;5036383;28;20028;-70
2023/03/14 11:01:38;;;;;;;1.23;0.50;;;11.50;99.90;;;;;;5039316;28;20025;-70
2023/03/14 11:04:42;;;;;;;1.48;0.50;;;11.40;99.90;;;;;;5036422;28;20091;-70
2023/03/14 11:07:35;;;;;;;1.13;0.40;;;11.40;99.90;;;;;;5053812;28;20067;-69
2023/03/14 11:10:43;;;;;;;0.70;0.38;;;11.20;99.90;;;;;;5054014;28;20021;-70
2023/03/14 11:13:29;;;;;;;0.70;0.40;;;11.10;99.90;;;;;;4976426;28;20019;-70
2023/03/14 11:16:27;;;;;;;0.95;0.30;;;11.10;99.90;;;;;;4976391;28;20806;-70
2023/03/14 11:19:11;;;;;;;1.23;0.43;;;11.00;99.90;;;;;;5006511;28;20113;-69
2023/03/14 11:22:17;;;;;;;2.05;0.50;;;10.80;99.90;;;;;;5012207;28;20108;-69
2023/03/14 11:25:10;;;;;;;0.60;0.40;;;10.70;99.90;;;;;;4995503;28;20030;-70
2023/03/14 11:27:46;;;;;;;1.70;0.43;;;10.70;99.90;;;;;;4995494;28;20030;-70
2023/03/14 11:30:33;;;;;;;0.65;0.50;;;10.80;99.90;;;;;;4996332;28;20029;-70
2023/03/14 11:33:20;;;;;;;1.00;0.55;;;11.10;99.90;;;;;;4996413;28;20536;-69
2023/03/14 11:36:01;;;;;;;1.23;0.50;;;11.40;99.90;;;;;;4996012;28;20468;-70
2023/03/14 11:38:49;;;;;;;2.47;0.77;;;11.90;99.90;;;;;;4996708;28;20271;-70
2023/03/14 11:41:17;;;;;;;2.15;1.00;;;11.80;99.90;;;;;;5012759;28;20029;-70
2023/03/14 11:43:48;;;;;;;1.60;0.98;;;11.40;99.90;;;;;;5011876;28;20026;-70
2023/03/14 11:46:23;;;;;;;1.05;0.80;;;11.10;99.90;;;;;;5019470;28;20037;-71
2023/03/14 11:48:55;;;;;;;3.65;1.20;;;11.00;99.90;;;;;;5087152;28;20024;-70
2023/03/14 11:51:25;;;;;;;1.88;0.95;;;10.80;99.90;;;;;;5093725;28;20101;-70
2023/03/14 11:54:01;;;;;;;4.53;1.02;;;10.80;99.90;;;;;;5075680;28;20028;-70
2023/03/14 11:56:46;;;;;;;2.67;0.85;;;10.70;99.90;;;;;;5077008;28;20024;-70
2023/03/14 11:59:21;;;;;;;1.67;0.82;;;10.60;99.90;;;;;;5096491;28;20499;-70
2023/03/14 12:01:57;;;;;;;1.75;0.60;;;10.50;99.90;;;;;;5095493;28;20028;-71
2023/03/14 12:04:34;;;;;;;4.53;1.00;;;10.40;99.90;;;;;;5095103;28;20449;-70
2023/03/14 12:07:06;;;;;;;2.70;0.85;;;10.40;99.90;;;;;;5095067;28;20032;-70
2023/03/14 12:09:32;;;;;;;1.98;0.80;;;10.50;99.90;;;;;;5075298;28;20169;-70
2023/03/14 12:12:02;;;;;;;2.17;0.98;;;10.60;99.90;;;;;;5075431;28;20088;-70
2023/03/14 12:14:36;;;;;;;3.38;0.88;;;10.70;99.90;;;;;;5093592;28;20540;-70
2023/03/14 12:17:21;;;;;;;4.35;0.80;;;10.90;99.90;;;;;;5070546;28;20357;-70
2023/03/14 12:19:47;;;;;;;13.38;1.92;;;10.90;99.90;;;;;;5055721;28;20021;-70
2023/03/14 12:22:28;;;;;;;2.42;0.93;;;10.90;99.90;;;;;;5072988;28;20028;-71
2023/03/14 12:24:59;;;;;;;7.90;1.20;;;10.90;99.90;;;;;;5073243;28;20024;-71
2023/03/14 12:27:45;;;;;;;9.13;1.20;;;11.00;99.90;;;;;;5055019;28;20031;-69
2023/03/14 12:30:24;;;;;;;3.05;0.65;;;11.10;99.90;;;;;;5072914;28;20036;-68
2023/03/14 12:33:18;;;;;;;4.72;1.02;;;11.30;99.90;;;;;;5073870;28;20100;-68
2023/03/14 12:35:47;;;;;;;8.38;1.40;;;11.40;99.90;;;;;;5073113;28;20074;-67
2023/03/14 12:38:35;;;;;;;5.03;0.95;;;11.60;99.90;;;;;;5054611;28;20028;-67
2023/03/14 12:41:08;;;;;;;8.52;1.30;;;11.70;99.90;;;;;;5073091;28;20112;-67
2023/03/14 12:43:34;;;;;;;28.30;2.28;;;11.90;99.90;;;;;;5072608;28;20103;-68
2023/03/14 12:46:18;;;;;;;6.97;1.40;;;12.00;99.90;;;;;;5072879;28;20040;-70
2023/03/14 12:49:10;;;;;;;12.85;1.58;;;12.10;99.90;;;;;;5076592;28;20066;-70
2023/03/14 12:51:46;;;;;;;4.72;0.60;;;12.20;99.90;;;;;;5055905;28;20037;-71
2023/03/14 12:54:38;;;;;;;1.08;0.63;;;12.00;99.50;;;;;;5058520;28;20031;-70
2023/03/14 12:57:32;;;;;;;1.60;0.60;;;11.90;99.20;;;;;;5076624;28;20024;-68